Time;durP1;ratioP1;P1;durP2;ratioP2;P2;SDS_P1;SDS_P2;PMS_P1;PMS_P2;Temp;Humidity;BMP_temperature;BMP_pressure;BME280_temperature;BME280_humidity;BME280_pressure;Samples;Min_cycle;Max_cycle;Signal;HPM_P1;HPM_P2
2021/09/02 00:00:29;;;;;;;7.03;5.60;;;13.00;99.90;;;;;;5021050;28;20297;-52
2021/09/02 00:02:55;;;;;;;6.90;6.20;;;13.40;99.90;;;;;;5021827;28;20436;-51
2021/09/02 00:05:20;;;;;;;6.60;6.00;;;13.00;99.90;;;;;;5028292;28;20441;-50
2021/09/02 00:07:46;;;;;;;6.10;5.60;;;12.80;99.90;;;;;;5021523;28;20216;-50
2021/09/02 00:10:12;;;;;;;6.80;6.10;;;13.10;99.90;;;;;;5028169;28;20310;-53
2021/09/02 00:12:38;;;;;;;5.75;5.25;;;13.00;99.90;;;;;;5025928;28;20198;-52
2021/09/02 00:15:07;;;;;;;6.23;5.63;;;13.00;99.90;;;;;;5039940;28;20666;-52
2021/09/02 00:17:33;;;;;;;7.30;6.28;;;13.10;99.90;;;;;;5025152;28;20215;-51
2021/09/02 00:19:58;;;;;;;7.20;6.50;;;13.00;99.90;;;;;;5020150;28;20239;-52
2021/09/02 00:22:24;;;;;;;7.40;6.37;;;12.90;99.90;;;;;;5021652;28;20238;-52
2021/09/02 00:24:50;;;;;;;6.40;5.80;;;12.90;99.90;;;;;;5019798;28;20186;-52
2021/09/02 00:27:15;;;;;;;6.90;6.20;;;12.80;99.90;;;;;;5027305;28;20550;-52
2021/09/02 00:29:41;;;;;;;8.90;6.60;;;12.90;99.90;;;;;;5030963;28;20184;-51
2021/09/02 00:32:07;;;;;;;7.30;5.83;;;12.80;99.90;;;;;;5033071;28;20227;-52
2021/09/02 00:34:33;;;;;;;6.30;5.60;;;12.80;99.90;;;;;;5031945;28;20185;-51
2021/09/02 00:36:59;;;;;;;6.40;5.40;;;12.80;99.90;;;;;;5026243;28;20227;-51
2021/09/02 00:39:24;;;;;;;8.10;6.17;;;12.70;99.90;;;;;;5024883;28;20467;-52
2021/09/02 00:41:50;;;;;;;8.30;5.87;;;12.90;99.90;;;;;;5022896;28;20174;-52
2021/09/02 00:44:39;;;;;;;7.13;6.43;;;13.00;99.90;;;;;;5026751;28;20184;-51
2021/09/02 00:47:07;;;;;;;7.50;6.20;;;12.60;99.90;;;;;;5027418;28;20198;-51
2021/09/02 00:49:34;;;;;;;6.50;5.88;;;12.60;99.90;;;;;;5019273;28;20181;-50
2021/09/02 00:52:09;;;;;;;7.85;5.80;;;12.70;99.90;;;;;;5022344;28;20201;-50
2021/09/02 00:54:35;;;;;;;6.25;5.53;;;12.70;99.90;;;;;;5031876;28;20197;-51
2021/09/02 00:57:01;;;;;;;7.63;6.07;;;12.70;99.90;;;;;;5027910;28;20226;-51
2021/09/02 00:59:27;;;;;;;6.37;5.80;;;12.60;99.90;;;;;;5024604;28;20218;-52
2021/09/02 01:01:55;;;;;;;6.68;5.97;;;12.50;99.90;;;;;;5032279;28;20190;-51
2021/09/02 01:04:22;;;;;;;6.40;5.70;;;12.40;99.90;;;;;;5030135;28;20271;-50
2021/09/02 01:06:49;;;;;;;6.28;5.68;;;12.40;99.90;;;;;;5024902;28;20201;-52
2021/09/02 01:09:15;;;;;;;7.68;6.10;;;12.50;99.90;;;;;;5028824;28;20190;-50
2021/09/02 01:11:41;;;;;;;7.10;6.40;;;12.40;99.90;;;;;;5022603;28;20182;-52
2021/09/02 01:14:07;;;;;;;6.00;5.40;;;12.60;99.90;;;;;;5029174;28;20200;-52
2021/09/02 01:16:33;;;;;;;6.77;5.10;;;12.50;99.90;;;;;;5031330;28;20207;-52
2021/09/02 01:18:58;;;;;;;6.30;5.70;;;12.70;99.90;;;;;;5031356;28;20185;-52
2021/09/02 01:21:24;;;;;;;9.50;5.80;;;12.60;99.90;;;;;;5024925;28;20511;-53
2021/09/02 01:23:50;;;;;;;6.73;5.90;;;12.50;99.90;;;;;;5031135;28;20192;-52
2021/09/02 01:26:18;;;;;;;7.03;6.20;;;12.40;99.90;;;;;;5028039;28;20243;-52
2021/09/02 01:28:44;;;;;;;6.45;5.90;;;12.50;99.90;;;;;;5026585;28;20187;-52
2021/09/02 01:31:14;;;;;;;6.60;5.75;;;12.40;99.90;;;;;;5027975;28;20235;-50
2021/09/02 01:33:46;;;;;;;7.38;6.25;;;12.70;99.90;;;;;;5030923;28;20212;-51
2021/09/02 01:36:12;;;;;;;6.10;5.50;;;12.50;99.90;;;;;;5024238;28;20530;-51
2021/09/02 01:38:38;;;;;;;7.53;6.47;;;12.10;99.90;;;;;;5025707;28;20186;-51
2021/09/02 01:41:04;;;;;;;6.37;5.77;;;12.30;99.90;;;;;;5026882;28;20228;-51
2021/09/02 01:43:30;;;;;;;7.07;6.37;;;12.30;99.90;;;;;;5023117;28;20445;-53
2021/09/02 01:45:56;;;;;;;6.80;6.00;;;12.20;99.90;;;;;;5031442;28;20454;-52
2021/09/02 01:48:22;;;;;;;7.67;5.87;;;12.30;99.90;;;;;;5022517;28;20474;-51
2021/09/02 01:50:47;;;;;;;6.97;6.33;;;12.20;99.90;;;;;;5028499;28;20237;-52
2021/09/02 01:53:18;;;;;;;6.50;5.90;;;12.30;99.90;;;;;;5028260;28;20993;-51
2021/09/02 01:55:46;;;;;;;6.60;6.00;;;12.10;99.90;;;;;;5029786;28;20969;-52
2021/09/02 01:58:12;;;;;;;7.25;6.55;;;12.10;99.90;;;;;;5023156;28;20291;-53
2021/09/02 02:00:39;;;;;;;7.95;6.15;;;12.20;99.90;;;;;;5025494;28;20217;-51
2021/09/02 02:03:05;;;;;;;6.72;6.13;;;12.20;99.90;;;;;;5028511;28;20708;-52
2021/09/02 02:05:31;;;;;;;6.57;5.95;;;12.10;99.90;;;;;;5022961;28;20186;-50
2021/09/02 02:07:58;;;;;;;9.43;5.87;;;11.80;99.90;;;;;;5029443;28;20701;-49
2021/09/02 02:10:28;;;;;;;6.63;5.45;;;11.90;99.90;;;;;;5024761;28;20864;-50
2021/09/02 02:12:55;;;;;;;6.32;5.70;;;12.10;99.90;;;;;;5025165;28;20190;-50
2021/09/02 02:15:22;;;;;;;8.93;5.90;;;12.00;99.90;;;;;;5025786;28;20191;-50
2021/09/02 02:17:47;;;;;;;7.60;6.53;;;12.00;99.90;;;;;;5025902;28;20252;-49
2021/09/02 02:20:13;;;;;;;7.70;6.30;;;12.20;99.90;;;;;;5026104;28;20220;-49
2021/09/02 02:22:40;;;;;;;7.07;6.30;;;11.70;99.90;;;;;;5026767;28;20182;-50
2021/09/02 02:25:08;;;;;;;10.75;5.53;;;11.90;99.90;;;;;;5028595;28;20439;-49
2021/09/02 02:27:34;;;;;;;7.10;6.00;;;11.70;99.90;;;;;;5027008;28;20195;-50
2021/09/02 02:30:01;;;;;;;6.43;5.85;;;11.80;99.90;;;;;;5022955;28;20341;-51
2021/09/02 02:32:27;;;;;;;8.38;6.22;;;11.80;99.90;;;;;;5026182;28;20198;-50
2021/09/02 02:34:52;;;;;;;6.37;5.77;;;12.00;99.90;;;;;;5019443;28;20654;-50
2021/09/02 02:37:18;;;;;;;6.87;5.67;;;11.90;99.90;;;;;;5024861;28;20214;-49
2021/09/02 02:39:44;;;;;;;6.47;5.87;;;12.00;99.90;;;;;;5027578;28;20198;-50
2021/09/02 02:42:10;;;;;;;7.23;6.30;;;11.90;99.90;;;;;;5025125;28;20439;-49
2021/09/02 02:44:37;;;;;;;7.25;6.55;;;11.80;99.90;;;;;;5027797;28;20932;-50
2021/09/02 02:47:04;;;;;;;7.28;6.57;;;11.80;99.90;;;;;;5028254;28;20206;-51
2021/09/02 02:49:30;;;;;;;7.10;6.40;;;11.70;99.90;;;;;;5029566;28;20188;-50
2021/09/02 02:51:56;;;;;;;8.60;6.43;;;11.70;99.90;;;;;;5020431;28;20274;-50
2021/09/02 02:54:22;;;;;;;7.53;6.27;;;11.90;99.90;;;;;;5029837;28;20461;-50
2021/09/02 02:56:48;;;;;;;7.10;5.87;;;11.50;99.90;;;;;;5023609;28;20708;-51
2021/09/02 02:59:13;;;;;;;7.30;6.40;;;11.60;99.90;;;;;;5029863;28;20190;-50
2021/09/02 03:01:39;;;;;;;7.13;6.17;;;11.80;99.90;;;;;;5026681;28;21204;-50
2021/09/02 03:04:05;;;;;;;6.57;5.97;;;11.80;99.90;;;;;;5030191;28;20239;-51
2021/09/02 03:06:31;;;;;;;6.13;5.53;;;11.60;99.90;;;;;;5026651;28;20211;-50
2021/09/02 03:08:57;;;;;;;7.20;6.60;;;11.10;99.90;;;;;;5028900;28;20182;-49
2021/09/02 03:11:22;;;;;;;9.37;6.13;;;11.40;99.90;;;;;;5021485;28;20489;-50
2021/09/02 03:13:49;;;;;;;10.70;6.13;;;11.40;99.90;;;;;;5021316;28;20464;-51
2021/09/02 03:16:14;;;;;;;7.50;6.28;;;11.40;99.90;;;;;;5026408;28;20249;-51
2021/09/02 03:18:40;;;;;;;6.50;5.87;;;11.60;99.90;;;;;;5023792;28;20191;-51
2021/09/02 03:21:06;;;;;;;6.33;5.73;;;11.60;99.90;;;;;;5023059;28;20500;-50
2021/09/02 03:23:31;;;;;;;7.97;5.97;;;11.60;99.90;;;;;;5014856;28;20279;-50
2021/09/02 03:25:57;;;;;;;6.50;5.90;;;11.60;99.90;;;;;;5027538;28;20520;-50
2021/09/02 03:28:23;;;;;;;7.20;5.73;;;11.60;99.90;;;;;;5026740;28;20211;-50
2021/09/02 03:30:48;;;;;;;7.20;6.50;;;11.30;99.90;;;;;;5024741;28;20184;-50
2021/09/02 03:33:14;;;;;;;8.60;6.90;;;11.50;99.90;;;;;;5024097;28;20186;-50
2021/09/02 03:35:40;;;;;;;5.87;5.23;;;11.30;99.90;;;;;;5023561;28;20188;-51
2021/09/02 03:38:06;;;;;;;6.63;6.03;;;11.50;99.90;;;;;;5023089;28;20289;-50
2021/09/02 03:40:32;;;;;;;9.25;6.45;;;11.60;99.90;;;;;;5032719;28;20413;-51
2021/09/02 03:42:58;;;;;;;7.30;6.60;;;11.50;99.90;;;;;;5029312;28;20199;-51
2021/09/02 03:45:23;;;;;;;9.80;6.50;;;11.60;99.90;;;;;;5028940;28;20266;-50
2021/09/02 03:47:49;;;;;;;6.67;5.90;;;11.50;99.90;;;;;;5030428;28;20219;-50
2021/09/02 03:50:17;;;;;;;7.05;6.35;;;11.40;99.90;;;;;;5028947;28;20198;-50
2021/09/02 03:52:43;;;;;;;8.40;7.43;;;11.60;99.90;;;;;;5020922;28;20215;-51
2021/09/02 03:55:10;;;;;;;8.60;6.43;;;11.40;99.90;;;;;;5026816;28;20202;-50
2021/09/02 03:57:36;;;;;;;6.82;6.22;;;11.50;99.90;;;;;;5019166;28;20237;-51
2021/09/02 04:00:04;;;;;;;8.30;6.43;;;11.40;99.90;;;;;;5025900;28;20218;-49
2021/09/02 04:02:30;;;;;;;7.30;6.03;;;11.30;99.90;;;;;;5021338;28;20179;-50
2021/09/02 04:04:56;;;;;;;7.90;6.80;;;11.50;99.90;;;;;;5022077;28;20184;-49
2021/09/02 04:07:21;;;;;;;8.47;6.80;;;11.40;99.90;;;;;;5027644;28;21005;-50
2021/09/02 04:09:47;;;;;;;6.30;5.67;;;11.40;99.90;;;;;;5028845;28;20628;-50
2021/09/02 04:12:12;;;;;;;7.60;6.60;;;11.30;99.90;;;;;;5025268;28;20249;-49
2021/09/02 04:14:38;;;;;;;6.93;6.33;;;11.30;99.90;;;;;;5027370;28;20263;-50
2021/09/02 04:17:04;;;;;;;6.43;5.73;;;11.20;99.90;;;;;;5023330;28;20683;-50
2021/09/02 04:19:29;;;;;;;6.80;6.10;;;11.30;99.90;;;;;;5030991;28;20214;-50
2021/09/02 04:21:55;;;;;;;7.97;6.80;;;10.90;99.90;;;;;;5020853;28;20263;-50
2021/09/02 04:24:21;;;;;;;7.20;6.47;;;11.10;99.90;;;;;;5028391;28;20191;-51
2021/09/02 04:26:46;;;;;;;7.00;6.40;;;11.30;99.90;;;;;;5028677;28;20213;-50
2021/09/02 04:29:12;;;;;;;7.27;6.67;;;11.30;99.90;;;;;;5031303;28;20640;-50
2021/09/02 04:31:38;;;;;;;7.43;6.80;;;10.90;99.90;;;;;;5027238;28;20558;-50
2021/09/02 04:34:03;;;;;;;11.13;6.97;;;11.00;99.90;;;;;;5026490;28;20233;-50
2021/09/02 04:36:29;;;;;;;7.73;6.60;;;11.20;99.90;;;;;;5023864;28;20882;-50
2021/09/02 04:38:55;;;;;;;7.70;6.40;;;11.10;99.90;;;;;;5031089;28;20187;-51
2021/09/02 04:41:20;;;;;;;7.00;6.30;;;10.90;99.90;;;;;;5030124;28;20322;-49
2021/09/02 04:43:46;;;;;;;7.43;6.70;;;11.00;99.90;;;;;;5027622;28;20286;-51
2021/09/02 04:46:11;;;;;;;7.60;6.83;;;11.10;99.90;;;;;;5021047;28;20203;-50
2021/09/02 04:48:38;;;;;;;7.87;7.07;;;11.20;99.90;;;;;;5029647;28;20199;-50
2021/09/02 04:51:04;;;;;;;8.70;6.95;;;11.30;99.90;;;;;;5025744;28;20184;-50
2021/09/02 04:53:30;;;;;;;7.30;6.60;;;11.10;99.90;;;;;;5027302;28;20198;-49
2021/09/02 04:55:55;;;;;;;9.43;6.73;;;11.20;99.90;;;;;;5024615;28;20948;-50
2021/09/02 04:58:21;;;;;;;8.07;7.27;;;11.20;99.90;;;;;;5027581;28;20241;-50
2021/09/02 05:00:47;;;;;;;7.00;5.87;;;11.20;99.90;;;;;;5031871;28;20222;-50
2021/09/02 05:03:12;;;;;;;7.13;6.43;;;11.20;99.90;;;;;;5031334;28;20214;-50
2021/09/02 05:05:38;;;;;;;7.80;7.00;;;11.00;99.90;;;;;;5030933;28;20183;-50
2021/09/02 05:08:04;;;;;;;9.57;6.80;;;11.00;99.90;;;;;;5022167;28;20248;-50
2021/09/02 05:10:30;;;;;;;9.13;7.95;;;11.00;99.90;;;;;;5029759;28;20186;-50
2021/09/02 05:12:56;;;;;;;7.70;6.90;;;11.00;99.90;;;;;;5030333;28;20187;-50
2021/09/02 05:15:21;;;;;;;9.30;7.57;;;10.90;99.90;;;;;;5028095;28;20203;-49
2021/09/02 05:17:48;;;;;;;6.90;6.30;;;10.90;99.90;;;;;;5027957;28;20207;-50
2021/09/02 05:20:15;;;;;;;7.80;6.85;;;10.90;99.90;;;;;;5030875;28;20205;-50
2021/09/02 05:22:42;;;;;;;7.25;6.55;;;11.30;99.90;;;;;;5021824;28;20193;-50
2021/09/02 05:25:08;;;;;;;7.78;6.85;;;11.40;99.90;;;;;;5022637;28;20190;-50
2021/09/02 05:27:34;;;;;;;9.00;8.10;;;11.30;99.90;;;;;;5025495;28;20214;-50
2021/09/02 05:30:03;;;;;;;8.10;7.20;;;11.30;99.90;;;;;;5020010;28;20199;-49
2021/09/02 05:32:29;;;;;;;8.98;7.28;;;11.40;99.90;;;;;;5031861;28;20187;-50
2021/09/02 05:34:54;;;;;;;9.37;7.33;;;11.50;99.90;;;;;;5022637;28;20191;-50
2021/09/02 05:37:20;;;;;;;9.60;7.43;;;11.40;99.90;;;;;;5029328;28;20674;-50
2021/09/02 05:39:46;;;;;;;6.70;6.10;;;11.20;99.90;;;;;;5023373;28;20215;-49
2021/09/02 05:42:11;;;;;;;7.70;6.90;;;11.60;99.90;;;;;;5027222;28;20191;-49
2021/09/02 05:44:37;;;;;;;9.23;7.07;;;11.60;99.90;;;;;;5028508;28;21030;-49
2021/09/02 05:47:04;;;;;;;8.70;7.77;;;11.40;99.90;;;;;;5025192;28;20582;-48
2021/09/02 05:49:29;;;;;;;10.80;9.80;;;11.30;99.90;;;;;;5021694;28;20556;-50
2021/09/02 05:51:55;;;;;;;8.70;7.90;;;11.30;99.90;;;;;;5024962;28;20184;-49
2021/09/02 05:54:20;;;;;;;7.27;6.60;;;11.70;99.90;;;;;;5020544;28;20190;-49
2021/09/02 05:56:46;;;;;;;8.90;7.80;;;11.60;99.90;;;;;;5016173;28;20206;-51
2021/09/02 05:59:12;;;;;;;7.97;7.17;;;11.90;99.90;;;;;;5020894;28;20201;-51
2021/09/02 06:01:38;;;;;;;8.45;7.65;;;11.80;99.90;;;;;;5011612;28;20196;-50
2021/09/02 06:04:04;;;;;;;8.33;7.53;;;12.10;99.90;;;;;;5026105;28;20175;-48
2021/09/02 06:06:29;;;;;;;9.23;7.50;;;12.30;99.90;;;;;;5022773;28;20684;-49
2021/09/02 06:08:55;;;;;;;8.43;7.53;;;12.30;99.90;;;;;;5019200;28;20955;-50
2021/09/02 06:11:20;;;;;;;8.77;7.97;;;12.00;99.90;;;;;;5026414;28;20191;-49
2021/09/02 06:13:46;;;;;;;8.80;7.20;;;12.20;99.90;;;;;;5022217;28;20255;-49
2021/09/02 06:16:11;;;;;;;10.60;7.97;;;12.50;99.90;;;;;;5026227;28;20550;-49
2021/09/02 06:18:37;;;;;;;12.43;8.70;;;12.50;99.90;;;;;;5024102;28;20188;-51
2021/09/02 06:21:03;;;;;;;15.63;8.40;;;12.70;99.90;;;;;;5018082;28;20217;-51
2021/09/02 06:23:28;;;;;;;11.47;8.17;;;12.90;99.90;;;;;;5017222;28;20321;-50
2021/09/02 06:25:54;;;;;;;11.30;7.60;;;12.90;99.90;;;;;;5022582;28;20277;-50
2021/09/02 06:28:20;;;;;;;9.70;8.43;;;13.00;99.90;;;;;;5011817;28;20703;-51
2021/09/02 06:30:45;;;;;;;10.03;7.97;;;13.40;99.90;;;;;;5025101;28;20190;-51
2021/09/02 06:33:11;;;;;;;12.80;9.27;;;13.60;99.90;;;;;;5020421;28;20189;-50
2021/09/02 06:35:37;;;;;;;10.17;8.90;;;13.50;99.90;;;;;;5021168;28;20186;-50
2021/09/02 06:38:04;;;;;;;9.10;8.20;;;13.80;99.90;;;;;;5019574;28;20461;-51
2021/09/02 06:40:30;;;;;;;9.77;8.75;;;13.70;99.90;;;;;;5018781;28;20202;-50
2021/09/02 06:42:55;;;;;;;10.80;8.60;;;14.10;99.90;;;;;;5021325;28;20192;-50
2021/09/02 06:45:21;;;;;;;10.17;9.10;;;14.20;99.90;;;;;;5026049;28;20794;-51
2021/09/02 06:47:47;;;;;;;11.30;10.10;;;14.10;99.90;;;;;;5024409;28;20199;-51
2021/09/02 06:50:14;;;;;;;10.33;9.30;;;14.60;99.90;;;;;;5034052;28;20536;-49
2021/09/02 06:52:41;;;;;;;10.63;9.27;;;14.50;99.90;;;;;;5034569;28;20210;-49
2021/09/02 06:55:07;;;;;;;11.20;9.40;;;14.60;99.90;;;;;;5023284;28;20198;-50
2021/09/02 06:57:33;;;;;;;11.50;10.30;;;14.80;99.90;;;;;;5018234;28;20214;-51
2021/09/02 06:59:59;;;;;;;12.38;9.57;;;14.80;99.90;;;;;;5022163;28;20640;-51
2021/09/02 07:02:25;;;;;;;11.40;8.60;;;15.30;99.90;;;;;;5028998;28;20187;-49
2021/09/02 07:04:50;;;;;;;10.27;8.03;;;16.90;99.90;;;;;;5028746;28;20433;-50
2021/09/02 07:07:16;;;;;;;9.70;8.80;;;19.80;99.90;;;;;;5015207;28;20293;-51
2021/09/02 07:09:42;;;;;;;9.00;8.10;;;21.30;97.10;;;;;;5023780;28;20197;-51
2021/09/02 07:12:07;;;;;;;8.93;8.03;;;22.60;94.80;;;;;;5021961;28;20187;-51
2021/09/02 07:14:33;;;;;;;9.27;8.37;;;24.50;91.10;;;;;;5021989;28;20789;-50
2021/09/02 07:16:59;;;;;;;8.60;7.80;;;25.60;85.10;;;;;;5025680;28;20206;-50
2021/09/02 07:19:24;;;;;;;8.73;7.93;;;27.30;78.70;;;;;;5022016;28;20688;-52
2021/09/02 07:21:50;;;;;;;9.60;8.80;;;27.10;76.00;;;;;;5014897;28;20308;-51
2021/09/02 07:24:16;;;;;;;10.10;9.20;;;28.00;73.70;;;;;;5014161;28;20189;-51
2021/09/02 07:26:41;;;;;;;10.70;9.70;;;28.50;69.50;;;;;;5018363;28;20353;-49
2021/09/02 07:29:08;;;;;;;9.30;8.50;;;28.60;67.30;;;;;;5024883;28;20206;-50
2021/09/02 07:31:37;;;;;;;10.77;9.03;;;28.50;65.90;;;;;;5023207;28;20525;-49
2021/09/02 07:34:03;;;;;;;10.50;9.40;;;29.30;67.50;;;;;;5026260;28;20443;-49
2021/09/02 07:36:29;;;;;;;9.40;8.50;;;29.30;63.70;;;;;;5023990;28;21242;-49
2021/09/02 07:38:55;;;;;;;10.70;9.70;;;28.90;65.70;;;;;;5020387;28;20240;-49
2021/09/02 07:41:20;;;;;;;9.57;8.67;;;30.60;60.10;;;;;;5016197;28;20490;-50
2021/09/02 07:43:46;;;;;;;10.93;9.80;;;29.80;61.70;;;;;;5025057;28;20202;-51
2021/09/02 07:46:12;;;;;;;11.50;8.43;;;29.10;62.00;;;;;;5021563;28;20197;-48
2021/09/02 07:48:37;;;;;;;11.13;9.20;;;29.30;62.80;;;;;;5015280;28;20190;-50
2021/09/02 07:51:03;;;;;;;9.80;8.90;;;30.90;58.30;;;;;;5014472;28;20460;-51
2021/09/02 07:53:30;;;;;;;8.20;7.40;;;31.50;57.10;;;;;;5025168;28;20250;-50
2021/09/02 07:55:56;;;;;;;10.10;9.30;;;32.20;55.10;;;;;;5023434;28;20182;-48
2021/09/02 07:58:22;;;;;;;9.40;8.60;;;31.50;54.10;;;;;;5018351;28;20989;-51
2021/09/02 08:00:48;;;;;;;9.50;8.60;;;31.50;55.90;;;;;;5026060;28;20483;-51
2021/09/02 08:03:14;;;;;;;9.20;8.37;;;32.80;54.40;;;;;;5026918;28;20198;-53
2021/09/02 08:05:39;;;;;;;9.33;8.43;;;33.80;52.40;;;;;;5015653;28;20444;-52
2021/09/02 08:08:06;;;;;;;10.60;9.60;;;34.20;50.90;;;;;;5017421;28;20218;-51
2021/09/02 08:10:32;;;;;;;8.63;7.83;;;34.70;49.60;;;;;;5023851;28;20205;-52
2021/09/02 08:12:58;;;;;;;8.93;8.13;;;33.60;50.00;;;;;;5021014;28;20444;-52
2021/09/02 08:15:24;;;;;;;9.13;8.43;;;33.40;50.60;;;;;;5018035;28;20451;-51
2021/09/02 08:17:51;;;;;;;9.30;8.33;;;33.00;50.50;;;;;;5024682;28;20472;-52
2021/09/02 08:20:18;;;;;;;9.63;8.17;;;32.60;51.80;;;;;;5027520;28;20598;-51
2021/09/02 08:22:44;;;;;;;9.33;7.83;;;33.00;51.20;;;;;;5022243;28;20475;-51
2021/09/02 08:25:11;;;;;;;8.90;8.20;;;32.90;50.80;;;;;;5023826;28;20465;-52
2021/09/02 08:27:37;;;;;;;8.37;7.67;;;33.50;50.30;;;;;;5016691;28;20214;-50
2021/09/02 08:30:04;;;;;;;10.90;9.90;;;33.60;49.30;;;;;;5024690;28;20448;-51
2021/09/02 08:32:29;;;;;;;9.13;8.27;;;33.00;49.90;;;;;;5026551;28;20846;-50
2021/09/02 08:34:55;;;;;;;10.50;9.60;;;33.10;50.50;;;;;;5028904;28;20459;-51
2021/09/02 08:37:21;;;;;;;11.80;10.70;;;33.50;49.70;;;;;;5024566;28;20251;-51
2021/09/02 08:39:46;;;;;;;10.33;9.33;;;33.20;49.80;;;;;;5020070;28;20627;-50
2021/09/02 08:42:15;;;;;;;10.73;9.67;;;33.60;48.90;;;;;;5041760;28;20190;-50
2021/09/02 08:44:42;;;;;;;9.47;8.60;;;33.40;49.20;;;;;;5026518;28;20190;-50
2021/09/02 08:47:08;;;;;;;9.70;8.73;;;33.40;49.20;;;;;;5023174;28;20472;-50
2021/09/02 08:49:34;;;;;;;10.10;9.17;;;33.70;49.10;;;;;;5025758;28;20445;-51
2021/09/02 08:52:00;;;;;;;9.20;8.20;;;33.50;48.70;;;;;;5030243;28;20456;-52
2021/09/02 08:54:25;;;;;;;8.60;7.80;;;33.20;49.20;;;;;;5025375;28;20194;-52
2021/09/02 08:56:51;;;;;;;9.33;8.60;;;33.00;49.60;;;;;;5020201;28;20300;-52
2021/09/02 08:59:17;;;;;;;8.63;7.90;;;32.10;50.30;;;;;;5021387;28;20493;-51
2021/09/02 09:01:47;;;;;;;9.60;8.70;;;30.80;52.30;;;;;;5028978;28;20194;-52
2021/09/02 09:04:14;;;;;;;10.07;9.17;;;30.00;53.60;;;;;;5024615;28;20207;-50
2021/09/02 09:06:41;;;;;;;10.50;9.50;;;29.50;55.00;;;;;;5018087;28;20557;-52
2021/09/02 09:09:12;;;;;;;10.57;8.87;;;28.90;57.00;;;;;;5030823;28;20484;-50
2021/09/02 09:11:47;;;;;;;8.10;7.40;;;29.50;56.20;;;;;;5023937;28;20447;-50
2021/09/02 09:14:15;;;;;;;7.97;7.27;;;29.20;57.40;;;;;;5025492;28;20992;-51
2021/09/02 09:16:50;;;;;;;9.87;8.93;;;28.00;57.20;;;;;;5028774;28;20472;-51
2021/09/02 09:19:36;;;;;;;9.37;8.47;;;27.30;59.80;;;;;;5019471;28;20445;-50
2021/09/02 09:22:03;;;;;;;10.07;8.53;;;25.90;63.90;;;;;;5025845;28;20569;-49
2021/09/02 09:24:44;;;;;;;10.50;9.00;;;25.40;67.70;;;;;;5031779;28;20445;-50
2021/09/02 09:27:10;;;;;;;9.50;8.63;;;24.90;69.30;;;;;;5023349;28;20465;-50
2021/09/02 09:29:35;;;;;;;8.53;7.80;;;24.20;71.30;;;;;;5024714;28;20780;-50
2021/09/02 09:32:17;;;;;;;9.13;6.60;;;23.80;73.10;;;;;;5039771;22;20190;-81
2021/09/02 09:34:54;;;;;;;7.60;6.90;;;23.50;72.30;;;;;;5030477;28;20268;-80
2021/09/02 09:37:21;;;;;;;6.97;6.37;;;23.20;75.00;;;;;;5026443;28;20501;-79
2021/09/02 09:39:48;;;;;;;7.50;6.50;;;23.10;73.80;;;;;;5031750;28;20671;-81
2021/09/02 09:42:17;;;;;;;6.80;6.10;;;23.60;74.10;;;;;;5019690;28;20438;-82
2021/09/02 09:44:43;;;;;;;6.80;6.20;;;23.90;72.60;;;;;;5020412;28;20441;-82
2021/09/02 09:47:17;;;;;;;7.23;6.63;;;24.30;71.90;;;;;;5037441;28;20497;-82
2021/09/02 09:49:55;;;;;;;17.57;7.93;;;24.50;71.20;;;;;;5015596;28;20210;-82
2021/09/02 09:52:26;;;;;;;8.00;7.30;;;24.40;73.90;;;;;;5022180;28;20464;-83
2021/09/02 09:54:55;;;;;;;8.33;7.43;;;24.30;75.30;;;;;;5027859;28;20470;-80
2021/09/02 09:57:21;;;;;;;6.50;5.90;;;24.10;75.30;;;;;;5012597;28;20553;-81
2021/09/02 09:59:46;;;;;;;7.17;6.47;;;23.90;75.20;;;;;;5012344;28;20973;-82
2021/09/02 10:02:12;;;;;;;7.00;6.43;;;23.90;74.80;;;;;;5032737;28;20606;-82
2021/09/02 10:04:40;;;;;;;8.40;6.73;;;23.50;77.70;;;;;;5024943;28;20212;-82
2021/09/02 10:07:06;;;;;;;7.10;6.50;;;24.20;78.00;;;;;;5018919;28;20441;-82
2021/09/02 10:09:33;;;;;;;7.60;6.83;;;23.50;79.00;;;;;;5013447;28;20473;-83
2021/09/02 10:12:03;;;;;;;7.17;6.27;;;23.80;79.70;;;;;;5016843;28;20437;-81
2021/09/02 10:14:29;;;;;;;7.43;6.57;;;23.30;75.30;;;;;;5013426;28;20442;-82
2021/09/02 10:16:58;;;;;;;6.27;5.67;;;23.20;76.50;;;;;;5020356;28;20529;-83
2021/09/02 10:19:25;;;;;;;6.20;5.70;;;23.20;73.90;;;;;;5016146;28;20452;-82
2021/09/02 10:21:52;;;;;;;5.93;5.43;;;23.00;73.10;;;;;;5025323;28;20518;-82
2021/09/02 10:24:36;;;;;;;6.67;6.07;;;23.10;75.70;;;;;;5018411;28;20985;-81
2021/09/02 10:27:22;;;;;;;5.70;5.10;;;23.10;76.60;;;;;;5013395;28;20448;-81
2021/09/02 10:29:48;;;;;;;5.80;5.30;;;23.20;74.00;;;;;;5007931;28;20458;-82
2021/09/02 10:32:40;;;;;;;6.30;5.70;;;23.20;74.30;;;;;;5011606;28;20457;-80
2021/09/02 10:35:06;;;;;;;6.03;5.53;;;23.30;72.90;;;;;;5008471;28;20900;-82
2021/09/02 10:37:34;;;;;;;6.07;5.57;;;23.80;71.70;;;;;;5009826;28;20442;-82
2021/09/02 10:40:01;;;;;;;9.00;5.43;;;23.50;71.10;;;;;;5013436;28;20276;-82
2021/09/02 10:42:49;;;;;;;6.07;5.50;;;23.50;71.90;;;;;;5005984;28;20446;-82
2021/09/02 10:45:27;;;;;;;6.00;5.40;;;23.50;73.00;;;;;;5002784;28;20472;-80
2021/09/02 10:47:57;;;;;;;5.90;5.40;;;23.60;71.50;;;;;;5009514;28;21004;-83
2021/09/02 10:50:52;;;;;;;5.40;5.00;;;23.60;70.70;;;;;;5006393;28;20461;-83
2021/09/02 10:53:18;;;;;;;5.63;5.03;;;23.60;71.50;;;;;;5005562;28;20450;-81
2021/09/02 10:55:47;;;;;;;5.60;5.00;;;23.60;71.40;;;;;;5007980;28;20976;-80
2021/09/02 10:58:45;;;;;;;5.50;5.00;;;23.50;71.90;;;;;;5001625;28;20445;-81
2021/09/02 11:01:22;;;;;;;5.17;4.67;;;23.60;72.50;;;;;;5006757;28;20480;-82
2021/09/02 11:03:52;;;;;;;5.90;5.40;;;23.50;73.30;;;;;;5009873;28;20512;-82
2021/09/02 11:06:17;;;;;;;6.10;5.50;;;23.80;73.00;;;;;;5009019;28;20443;-82
2021/09/02 11:08:44;;;;;;;5.70;5.20;;;23.90;73.60;;;;;;5004341;28;20804;-79
2021/09/02 11:11:10;;;;;;;5.60;5.00;;;23.90;72.90;;;;;;5009096;28;20207;-79
2021/09/02 11:13:36;;;;;;;5.63;5.13;;;23.90;70.90;;;;;;5024312;28;20449;-81
2021/09/02 11:16:16;;;;;;;4.93;4.43;;;23.90;70.20;;;;;;5008456;28;20450;-81
2021/09/02 11:18:47;;;;;;;5.47;4.97;;;24.30;68.50;;;;;;5008442;28;20570;-80
2021/09/02 11:21:19;;;;;;;4.90;4.50;;;23.90;67.60;;;;;;5008418;28;20524;-81
2021/09/02 11:23:48;;;;;;;4.83;4.43;;;23.80;65.30;;;;;;5010037;28;20450;-81
2021/09/02 11:26:37;;;;;;;4.77;4.37;;;23.90;66.90;;;;;;5001599;28;20473;-80
2021/09/02 11:29:03;;;;;;;4.53;4.23;;;24.00;68.30;;;;;;5000354;28;20438;-81
2021/09/02 11:31:30;;;;;;;4.83;4.43;;;24.00;66.10;;;;;;5009451;28;20551;-81
2021/09/02 11:33:56;;;;;;;5.30;4.80;;;24.00;64.90;;;;;;5012418;28;20548;-82
2021/09/02 11:36:22;;;;;;;5.30;4.80;;;24.30;66.50;;;;;;4999601;28;20589;-81
2021/09/02 11:38:50;;;;;;;5.50;4.47;;;23.90;68.40;;;;;;5003267;28;20183;-82
2021/09/02 11:41:21;;;;;;;5.00;4.60;;;23.90;68.40;;;;;;5009317;28;20483;-81
2021/09/02 11:43:51;;;;;;;6.23;5.63;;;23.80;70.30;;;;;;5008177;28;20430;-80
2021/09/02 11:46:18;;;;;;;5.30;4.80;;;23.80;69.80;;;;;;5010044;28;20433;-81
2021/09/02 11:48:50;;;;;;;4.50;4.10;;;23.80;68.20;;;;;;5007584;28;20773;-80
2021/09/02 11:51:26;;;;;;;4.73;4.33;;;23.80;68.00;;;;;;5007508;28;20466;-81
2021/09/02 11:54:13;;;;;;;5.83;5.23;;;24.00;69.10;;;;;;5008101;28;20441;-81
2021/09/02 11:56:41;;;;;;;5.23;4.73;;;24.60;67.60;;;;;;5002786;28;20654;-80
2021/09/02 11:59:10;;;;;;;4.90;4.50;;;24.80;66.10;;;;;;5001079;28;20447;-80
2021/09/02 12:01:47;;;;;;;4.83;4.50;;;25.00;65.00;;;;;;5014743;28;21002;-81
2021/09/02 12:04:20;;;;;;;5.63;5.10;;;25.20;66.00;;;;;;5010207;28;20434;-81
2021/09/02 12:06:48;;;;;;;4.73;4.37;;;25.20;64.50;;;;;;5005517;28;20435;-81
2021/09/02 12:09:22;;;;;;;5.50;5.00;;;25.20;64.20;;;;;;5012996;28;20459;-81
2021/09/02 12:11:49;;;;;;;4.60;4.20;;;25.20;64.60;;;;;;5009169;28;20443;-80
2021/09/02 12:14:25;;;;;;;4.97;4.33;;;25.30;64.40;;;;;;5009293;28;20648;-81
2021/09/02 12:17:01;;;;;;;4.70;4.30;;;24.90;65.10;;;;;;5010965;28;20444;-81
2021/09/02 12:19:27;;;;;;;5.57;4.63;;;24.60;65.00;;;;;;5011350;28;20445;-81
2021/09/02 12:22:09;;;;;;;4.80;4.50;;;24.40;65.30;;;;;;5009728;28;20496;-81
2021/09/02 12:24:35;;;;;;;4.87;4.40;;;24.40;66.10;;;;;;4995998;28;20454;-81
2021/09/02 12:27:00;;;;;;;5.00;4.50;;;24.70;68.40;;;;;;5018418;28;20434;-81
2021/09/02 12:29:26;;;;;;;5.87;4.30;;;24.60;63.00;;;;;;5011480;28;20235;-81
2021/09/02 12:31:54;;;;;;;5.07;4.57;;;24.60;64.00;;;;;;5013078;28;20185;-80
2021/09/02 12:34:27;;;;;;;4.70;4.30;;;24.60;64.90;;;;;;5011066;28;20222;-80
2021/09/02 12:37:03;;;;;;;4.60;4.20;;;24.50;65.90;;;;;;5006710;28;20586;-81
2021/09/02 12:39:31;;;;;;;5.20;4.80;;;24.50;65.80;;;;;;5011418;28;20456;-81
2021/09/02 12:41:59;;;;;;;5.53;4.67;;;24.60;67.50;;;;;;5008904;28;20487;-81
2021/09/02 12:44:43;;;;;;;4.80;4.40;;;24.50;66.10;;;;;;5007692;28;20446;-81
2021/09/02 12:47:19;;;;;;;5.10;4.60;;;24.40;64.80;;;;;;5013498;28;20576;-80